WZZ29L LOWW-LDZA
Flight info
| Callsign | WZZ29L |
|---|---|
| Flight time | N/A |
| Altitude | 25000 |
| Route | STEIN DCT NOHAT DCT NEKIN |
| Aircraft | A20N/M-SDE2E3FGHIRWXY/LB1 |
Departure
| Time | 2026-05-04 03:54 |
|---|---|
| Airport | Vienna International Airport (LOWW) |
Arrival
| Time | N/A |
|---|---|
| Airport | Zagreb Franjo Tuđman International Airport (LDZA) |
| Time | Latitude | Longitude | Altitude | Speed | Heading |
|---|---|---|---|---|---|
| 2026-05-04 03:54 | 48.01879 | 16.70577 | 7260 ft | 225 kts | 193° |
| 2026-05-04 03:54 | 48.00383 | 16.70174 | 7705 ft | 244 kts | 192° |
| 2026-05-04 03:55 | 47.98723 | 16.69751 | 8092 ft | 265 kts | 191° |
| 2026-05-04 03:55 | 47.96901 | 16.69308 | 8797 ft | 272 kts | 191° |
| 2026-05-04 03:55 | 47.95021 | 16.68859 | 9646 ft | 278 kts | 191° |
| 2026-05-04 03:55 | 47.93356 | 16.68464 | 10316 ft | 283 kts | 191° |
| 2026-05-04 03:56 | 47.91348 | 16.67983 | 10705 ft | 304 kts | 191° |
| 2026-05-04 03:56 | 47.89360 | 16.67503 | 10939 ft | 325 kts | 190° |
| 2026-05-04 03:56 | 47.87234 | 16.66991 | 11424 ft | 335 kts | 190° |
| 2026-05-04 03:56 | 47.85097 | 16.66481 | 12302 ft | 333 kts | 190° |
| 2026-05-04 03:57 | 47.82822 | 16.65936 | 12948 ft | 342 kts | 190° |
| 2026-05-04 03:57 | 47.80610 | 16.65408 | 13824 ft | 339 kts | 190° |
| 2026-05-04 03:57 | 47.78377 | 16.64871 | 14406 ft | 346 kts | 190° |
| 2026-05-04 03:57 | 47.76107 | 16.64326 | 14952 ft | 351 kts | 189° |
| 2026-05-04 03:58 | 47.71588 | 16.63434 | 16347 ft | 353 kts | 185° |
| 2026-05-04 03:58 | 47.69225 | 16.63159 | 16933 ft | 358 kts | 185° |
| 2026-05-04 03:58 | 47.66877 | 16.62876 | 17673 ft | 358 kts | 185° |
| 2026-05-04 03:59 | 47.64413 | 16.62576 | 18315 ft | 361 kts | 185° |
| 2026-05-04 03:59 | 47.62277 | 16.62316 | 18893 ft | 361 kts | 185° |
| 2026-05-04 03:59 | 47.58111 | 16.61813 | 19439 ft | 378 kts | 185° |
| 2026-05-04 03:59 | 47.53198 | 16.61223 | 20459 ft | 384 kts | 185° |
| 2026-05-04 04:00 | 47.48035 | 16.60602 | 21544 ft | 390 kts | 185° |
| 2026-05-04 04:00 | 47.42868 | 16.60012 | 22509 ft | 397 kts | 182° |
| 2026-05-04 04:00 | 47.37484 | 16.60186 | 23422 ft | 406 kts | 179° |
| 2026-05-04 04:00 | 47.34848 | 16.60310 | 23836 ft | 410 kts | 179° |
| 2026-05-04 04:01 | 47.32157 | 16.60434 | 24214 ft | 413 kts | 179° |
| 2026-05-04 04:01 | 47.29357 | 16.60558 | 24593 ft | 417 kts | 179° |
| 2026-05-04 04:01 | 47.26541 | 16.60681 | 24949 ft | 421 kts | 180° |
| 2026-05-04 04:01 | 47.23722 | 16.60803 | 25067 ft | 424 kts | 180° |
| 2026-05-04 04:02 | 47.20742 | 16.60931 | 25087 ft | 421 kts | 179° |
| 2026-05-04 04:02 | 47.17811 | 16.61057 | 25091 ft | 421 kts | 179° |
| 2026-05-04 04:02 | 47.13875 | 16.61229 | 25091 ft | 421 kts | 179° |
| 2026-05-04 04:02 | 47.08627 | 16.61457 | 25094 ft | 421 kts | 179° |
| 2026-05-04 04:03 | 47.03208 | 16.61692 | 25093 ft | 421 kts | 179° |
| 2026-05-04 04:03 | 46.97468 | 16.61938 | 25096 ft | 425 kts | 179° |
| 2026-05-04 04:03 | 46.91691 | 16.62187 | 25096 ft | 424 kts | 179° |
| 2026-05-04 04:03 | 46.85861 | 16.62437 | 25099 ft | 424 kts | 179° |
| 2026-05-04 04:04 | 46.80272 | 16.62784 | 25097 ft | 425 kts | 174° |
| 2026-05-04 04:04 | 46.74479 | 16.63903 | 25099 ft | 425 kts | 173° |
| 2026-05-04 04:04 | 46.68881 | 16.64982 | 25099 ft | 425 kts | 173° |
| 2026-05-04 04:04 | 46.63263 | 16.66055 | 25099 ft | 425 kts | 173° |
| 2026-05-04 04:05 | 46.57464 | 16.67160 | 25098 ft | 425 kts | 173° |
| 2026-05-04 04:05 | 46.51595 | 16.68275 | 25107 ft | 425 kts | 173° |
| 2026-05-04 04:05 | 46.45722 | 16.69387 | 25106 ft | 425 kts | 174° |
| 2026-05-04 04:05 | 46.40127 | 16.68510 | 25112 ft | 425 kts | 202° |
| 2026-05-04 04:06 | 46.35547 | 16.64217 | 25089 ft | 418 kts | 223° |
| 2026-05-04 04:06 | 46.31556 | 16.58833 | 24343 ft | 411 kts | 224° |
| 2026-05-04 04:06 | 46.27556 | 16.53536 | 23282 ft | 406 kts | 223° |
| 2026-05-04 04:06 | 46.23472 | 16.48299 | 22114 ft | 399 kts | 222° |
| 2026-05-04 04:07 | 46.19394 | 16.43119 | 20977 ft | 393 kts | 222° |
| 2026-05-04 04:07 | 46.16439 | 16.39373 | 20119 ft | 390 kts | 221° |
| 2026-05-04 04:07 | 46.14506 | 16.36925 | 19581 ft | 388 kts | 221° |
| 2026-05-04 04:07 | 46.12528 | 16.34422 | 19070 ft | 385 kts | 221° |
| 2026-05-04 04:08 | 46.11220 | 16.32767 | 18742 ft | 383 kts | 221° |
| 2026-05-04 04:08 | 46.09306 | 16.30348 | 18261 ft | 379 kts | 221° |
| 2026-05-04 04:08 | 46.06700 | 16.27059 | 17289 ft | 382 kts | 220° |
| 2026-05-04 04:08 | 46.05371 | 16.25384 | 16849 ft | 382 kts | 220° |
| 2026-05-04 04:09 | 46.03376 | 16.22872 | 16212 ft | 380 kts | 221° |
| 2026-05-04 04:09 | 46.01463 | 16.20428 | 15605 ft | 379 kts | 223° |
| 2026-05-04 04:09 | 45.99215 | 16.17031 | 14834 ft | 377 kts | 226° |
| 2026-05-04 04:09 | 45.98027 | 16.15204 | 14454 ft | 376 kts | 226° |
| 2026-05-04 04:10 | 45.96435 | 16.12758 | 13922 ft | 375 kts | 226° |
| 2026-05-04 04:10 | 45.94694 | 16.10090 | 13279 ft | 373 kts | 226° |
| 2026-05-04 04:10 | 45.93010 | 16.07517 | 12669 ft | 371 kts | 226° |
| 2026-05-04 04:10 | 45.91415 | 16.05082 | 12100 ft | 370 kts | 226° |
| 2026-05-04 04:11 | 45.89738 | 16.02526 | 11504 ft | 368 kts | 226° |
| 2026-05-04 04:11 | 45.88067 | 15.99984 | 10909 ft | 366 kts | 226° |
| 2026-05-04 04:11 | 45.86422 | 15.97482 | 10356 ft | 364 kts | 226° |
| 2026-05-04 04:11 | 45.84683 | 15.94840 | 9739 ft | 362 kts | 226° |
| 2026-05-04 04:12 | 45.82956 | 15.92221 | 9118 ft | 359 kts | 227° |
| 2026-05-04 04:12 | 45.81364 | 15.89810 | 8549 ft | 356 kts | 227° |
| 2026-05-04 04:12 | 45.79675 | 15.87253 | 7958 ft | 354 kts | 227° |
| 2026-05-04 04:12 | 45.77990 | 15.84702 | 7347 ft | 351 kts | 227° |
| 2026-05-04 04:13 | 45.76426 | 15.82337 | 6778 ft | 349 kts | 227° |
| 2026-05-04 04:13 | 45.74862 | 15.79974 | 6205 ft | 346 kts | 227° |
| 2026-05-04 04:13 | 45.73301 | 15.77616 | 5698 ft | 342 kts | 227° |
| 2026-05-04 04:13 | 45.71736 | 15.75256 | 5539 ft | 326 kts | 227° |
| 2026-05-04 04:14 | 45.70313 | 15.73114 | 5504 ft | 301 kts | 227° |
| 2026-05-04 04:14 | 45.69014 | 15.71159 | 5507 ft | 276 kts | 227° |
| 2026-05-04 04:14 | 45.67836 | 15.69386 | 5506 ft | 254 kts | 227° |
| 2026-05-04 04:14 | 45.66782 | 15.67801 | 5505 ft | 233 kts | 227° |
| 2026-05-04 04:15 | 45.65771 | 15.66291 | 5510 ft | 231 kts | 224° |
| 2026-05-04 04:15 | 45.64522 | 15.65197 | 5413 ft | 218 kts | 197° |
| 2026-05-04 04:15 | 45.63129 | 15.65068 | 5218 ft | 210 kts | 170° |
| 2026-05-04 04:15 | 45.61918 | 15.65814 | 5072 ft | 215 kts | 144° |
| 2026-05-04 04:16 | 45.60826 | 15.67251 | 4964 ft | 217 kts | 137° |
| 2026-05-04 04:16 | 45.59793 | 15.68673 | 4805 ft | 217 kts | 138° |
| 2026-05-04 04:16 | 45.58768 | 15.70069 | 4525 ft | 217 kts | 138° |
| 2026-05-04 04:16 | 45.57727 | 15.71476 | 4248 ft | 216 kts | 138° |
| 2026-05-04 04:17 | 45.56690 | 15.72875 | 4046 ft | 210 kts | 138° |
| 2026-05-04 04:17 | 45.55733 | 15.74272 | 4028 ft | 213 kts | 127° |
| 2026-05-04 04:17 | 45.55301 | 15.76176 | 4055 ft | 212 kts | 88° |
| 2026-05-04 04:17 | 45.55649 | 15.78064 | 4021 ft | 198 kts | 63° |
| 2026-05-04 04:18 | 45.56384 | 15.79639 | 3925 ft | 185 kts | 51° |
| 2026-05-04 04:18 | 45.57197 | 15.80953 | 3825 ft | 173 kts | 46° |
| 2026-05-04 04:18 | 45.58005 | 15.82167 | 3682 ft | 164 kts | 46° |
| 2026-05-04 04:18 | 45.58790 | 15.83353 | 3627 ft | 169 kts | 47° |
| 2026-05-04 04:19 | 45.59583 | 15.84554 | 3549 ft | 167 kts | 47° |
| 2026-05-04 04:19 | 45.60379 | 15.85759 | 3483 ft | 167 kts | 47° |
| 2026-05-04 04:19 | 45.61157 | 15.86939 | 3405 ft | 166 kts | 47° |
| 2026-05-04 04:19 | 45.61952 | 15.88144 | 3346 ft | 179 kts | 47° |
| 2026-05-04 04:20 | 45.62844 | 15.89496 | 3239 ft | 189 kts | 47° |
| 2026-05-04 04:20 | 45.63694 | 15.90784 | 3039 ft | 184 kts | 47° |
| 2026-05-04 04:20 | 45.64552 | 15.92085 | 2814 ft | 178 kts | 47° |
| 2026-05-04 04:20 | 45.65177 | 15.93034 | 2652 ft | 169 kts | 47° |
| 2026-05-04 04:21 | 45.65928 | 15.94174 | 2446 ft | 160 kts | 48° |
| 2026-05-04 04:21 | 45.66704 | 15.95354 | 2240 ft | 163 kts | 48° |
| 2026-05-04 04:21 | 45.67385 | 15.96384 | 2066 ft | 156 kts | 48° |
| 2026-05-04 04:21 | 45.68099 | 15.97470 | 1857 ft | 144 kts | 48° |
| 2026-05-04 04:22 | 45.68780 | 15.98506 | 1649 ft | 144 kts | 48° |
| 2026-05-04 04:22 | 45.69221 | 15.99182 | 1506 ft | 143 kts | 48° |